Time;durP1;ratioP1;P1;durP2;ratioP2;P2;SDS_P1;SDS_P2;PMS_P1;PMS_P2;Temp;Humidity;BMP_temperature;BMP_pressure;BME280_temperature;BME280_humidity;BME280_pressure;Samples;Min_cycle;Max_cycle;Signal;HPM_P1;HPM_P2
2022/10/05 00:02:18;;;;;;;7.35;5.38;;;;;;;5.67;100.00;97326.88;5019278;28;20049;-70
2022/10/05 00:04:43;;;;;;;10.98;7.90;;;;;;;5.55;100.00;97330.25;5013941;28;20475;-74
2022/10/05 00:07:15;;;;;;;9.40;6.97;;;;;;;5.39;100.00;97326.38;5013333;28;20100;-71
2022/10/05 00:09:42;;;;;;;10.10;6.18;;;;;;;5.35;100.00;97332.44;5017841;28;20046;-71
2022/10/05 00:12:16;;;;;;;7.35;5.20;;;;;;;5.34;100.00;97338.19;5033511;28;20061;-72
2022/10/05 00:14:43;;;;;;;9.35;5.15;;;;;;;5.45;100.00;97339.47;5026728;28;20084;-72
2022/10/05 00:17:15;;;;;;;6.57;4.80;;;;;;;5.60;100.00;97337.41;5015072;28;20104;-71
2022/10/05 00:19:41;;;;;;;6.75;5.13;;;;;;;5.81;100.00;97346.53;5020229;28;20045;-71
2022/10/05 00:22:16;;;;;;;7.15;5.38;;;;;;;6.13;100.00;97348.00;5001404;28;20041;-72
2022/10/05 00:24:43;;;;;;;9.13;6.07;;;;;;;6.23;100.00;97349.59;5010901;28;20042;-71
2022/10/05 00:27:32;;;;;;;10.57;6.60;;;;;;;6.33;100.00;97340.31;5018459;28;20055;-70
2022/10/05 00:30:01;;;;;;;18.48;7.10;;;;;;;6.39;100.00;97340.94;5024791;28;20443;-70
2022/10/05 00:32:27;;;;;;;15.60;6.88;;;;;;;6.32;100.00;97322.41;5005394;28;20045;-70
2022/10/05 00:34:53;;;;;;;27.55;7.28;;;;;;;6.16;100.00;97326.72;5016988;28;20050;-71
2022/10/05 00:37:18;;;;;;;14.13;7.50;;;;;;;6.10;100.00;97318.75;5021516;28;20052;-71
2022/10/05 00:39:44;;;;;;;15.10;7.20;;;;;;;6.17;100.00;97318.25;5047128;28;20049;-71
2022/10/05 00:42:31;;;;;;;17.33;6.53;;;;;;;6.18;100.00;97317.13;5028588;28;20041;-72
2022/10/05 00:45:09;;;;;;;16.73;7.28;;;;;;;6.18;100.00;97313.63;5015786;28;20048;-72
2022/10/05 00:48:06;;;;;;;21.33;7.45;;;;;;;6.22;100.00;97309.13;5023050;28;20067;-72
2022/10/05 00:50:38;;;;;;;21.85;7.47;;;;;;;6.07;100.00;97316.66;5014510;28;20386;-71
2022/10/05 00:53:09;;;;;;;29.58;8.68;;;;;;;5.99;100.00;97314.75;5018774;28;20056;-70
2022/10/05 00:56:07;;;;;;;18.98;7.57;;;;;;;5.91;100.00;97310.09;5022350;28;20467;-71
2022/10/05 00:58:58;;;;;;;23.35;9.35;;;;;;;6.06;100.00;97314.25;5014634;28;20049;-71
2022/10/05 01:01:43;;;;;;;21.95;8.10;;;;;;;5.98;100.00;97306.91;5006022;28;20751;-71
2022/10/05 01:04:38;;;;;;;16.95;8.13;;;;;;;6.17;100.00;97307.34;5018692;28;20049;-70
2022/10/05 01:07:19;;;;;;;18.60;9.40;;;;;;;6.24;100.00;97317.75;5020833;28;20033;-70
2022/10/05 01:09:56;;;;;;;21.13;9.23;;;;;;;6.27;100.00;97317.13;5020437;28;20049;-70
2022/10/05 01:12:28;;;;;;;22.30;8.90;;;;;;;6.35;100.00;97310.84;5012029;28;20494;-70
2022/10/05 01:15:15;;;;;;;22.70;9.98;;;;;;;6.41;100.00;97319.63;5015594;28;20049;-71
2022/10/05 01:17:57;;;;;;;13.82;7.68;;;;;;;6.44;100.00;97314.34;5025701;28;20029;-72
2022/10/05 01:20:38;;;;;;;17.33;7.95;;;;;;;6.49;100.00;97316.09;5017790;28;20040;-72
2022/10/05 01:23:20;;;;;;;14.52;8.27;;;;;;;6.56;100.00;97304.72;5020293;28;20029;-71
2022/10/05 01:26:18;;;;;;;16.42;7.13;;;;;;;6.63;100.00;97297.63;5018302;28;20100;-71
2022/10/05 01:28:50;;;;;;;18.98;7.97;;;;;;;6.70;100.00;97297.16;5013990;28;20032;-71
2022/10/05 01:31:32;;;;;;;15.15;8.05;;;;;;;6.79;100.00;97292.47;5019118;28;20034;-69
2022/10/05 01:34:26;;;;;;;15.73;8.05;;;;;;;6.77;100.00;97286.53;5018706;28;20067;-71
2022/10/05 01:37:41;;;;;;;15.38;8.35;;;;;;;6.82;100.00;97293.72;5017762;28;20041;-70
2022/10/05 01:40:07;;;;;;;19.10;8.85;;;;;;;6.85;100.00;97291.13;4955006;28;20037;-71
2022/10/05 01:42:32;;;;;;;17.73;9.00;;;;;;;6.91;100.00;97285.50;5014578;28;20039;-70
2022/10/05 01:45:26;;;;;;;19.85;8.68;;;;;;;7.01;100.00;97288.66;5016683;28;20438;-71
2022/10/05 01:48:12;;;;;;;32.83;8.98;;;;;;;7.05;100.00;97289.59;5015309;28;20088;-70
2022/10/05 01:50:58;;;;;;;31.15;9.73;;;;;;;7.03;100.00;97286.41;5017197;28;20062;-70
2022/10/05 01:53:50;;;;;;;16.98;10.05;;;;;;;7.06;100.00;97282.22;5015063;28;20030;-70
2022/10/05 01:56:31;;;;;;;53.97;10.95;;;;;;;6.97;100.00;97271.38;5011908;28;20503;-71
2022/10/05 01:59:30;;;;;;;28.75;9.75;;;;;;;6.84;100.00;97272.41;5015651;28;20074;-71
2022/10/05 02:02:02;;;;;;;21.25;10.82;;;;;;;6.99;100.00;97279.22;5020976;28;20033;-71
2022/10/05 02:04:40;;;;;;;17.50;9.55;;;;;;;6.87;100.00;97275.25;5012238;28;20109;-72
2022/10/05 02:07:19;;;;;;;36.78;10.55;;;;;;;6.80;100.00;97274.19;5015760;28;20030;-71
2022/10/05 02:09:57;;;;;;;20.48;10.00;;;;;;;6.92;100.00;97281.66;5019404;28;20040;-71
2022/10/05 02:12:26;;;;;;;20.95;9.98;;;;;;;7.01;100.00;97280.47;5012671;28;20544;-71
2022/10/05 02:15:00;;;;;;;23.27;10.40;;;;;;;6.87;100.00;97280.72;5016114;28;20482;-70
2022/10/05 02:17:39;;;;;;;18.75;10.25;;;;;;;6.86;100.00;97279.13;5019514;28;20056;-70
2022/10/05 02:20:10;;;;;;;23.33;11.90;;;;;;;7.07;100.00;97281.09;5018812;28;20030;-70
2022/10/05 02:22:42;;;;;;;22.33;11.15;;;;;;;7.21;100.00;97278.13;5036171;28;20044;-70
2022/10/05 02:25:13;;;;;;;29.88;16.30;;;;;;;7.27;100.00;97268.63;5014427;28;20454;-71
2022/10/05 02:27:55;;;;;;;28.38;13.45;;;;;;;7.30;100.00;97269.91;5018019;28;20045;-70
2022/10/05 02:30:21;;;;;;;25.15;11.73;;;;;;;7.44;100.00;97270.44;5019257;28;20026;-71
2022/10/05 02:32:54;;;;;;;35.05;10.07;;;;;;;7.37;100.00;97272.91;5016663;28;20360;-70
2022/10/05 02:35:21;;;;;;;23.40;10.50;;;;;;;7.34;100.00;97265.38;5033771;28;20032;-70
2022/10/05 02:38:15;;;;;;;36.45;11.20;;;;;;;7.33;100.00;97266.50;5019833;28;20041;-72
2022/10/05 02:40:52;;;;;;;57.33;11.77;;;;;;;7.30;100.00;97272.63;5021084;28;20399;-71
2022/10/05 02:43:33;;;;;;;41.28;10.20;;;;;;;7.28;100.00;97268.28;5001171;28;20040;-71
2022/10/05 02:46:20;;;;;;;42.10;11.27;;;;;;;7.37;100.00;97267.47;5015678;28;20030;-71
2022/10/05 02:49:13;;;;;;;23.30;11.27;;;;;;;7.49;100.00;97274.88;5014167;28;20391;-73
2022/10/05 02:51:57;;;;;;;27.92;11.73;;;;;;;7.65;100.00;97265.78;5020345;28;20495;-71
2022/10/05 02:54:41;;;;;;;28.25;10.65;;;;;;;7.74;100.00;97276.63;5015664;28;20133;-72
2022/10/05 02:57:09;;;;;;;21.45;10.73;;;;;;;7.80;100.00;97277.22;5020761;28;20025;-72
2022/10/05 02:59:40;;;;;;;25.30;11.55;;;;;;;7.85;100.00;97269.63;5017934;28;20029;-72
2022/10/05 03:02:23;;;;;;;19.60;11.65;;;;;;;7.91;100.00;97272.94;5019127;28;20087;-70
2022/10/05 03:04:54;;;;;;;28.63;11.68;;;;;;;7.90;100.00;97270.53;5022110;28;20065;-69
2022/10/05 03:07:29;;;;;;;32.00;11.82;;;;;;;7.98;100.00;97265.00;5016510;28;20026;-69
2022/10/05 03:10:08;;;;;;;23.35;12.57;;;;;;;7.97;100.00;97277.03;5018458;28;20450;-69
2022/10/05 03:12:48;;;;;;;22.07;12.30;;;;;;;7.99;100.00;97269.31;4999598;28;20044;-69
2022/10/05 03:15:41;;;;;;;22.40;12.45;;;;;;;7.89;100.00;97256.13;5015007;28;20292;-69
2022/10/05 03:18:34;;;;;;;62.88;13.73;;;;;;;7.69;100.00;97255.03;5017487;28;20025;-69
2022/10/05 03:21:19;;;;;;;67.25;15.00;;;;;;;7.62;100.00;97257.47;5021143;28;20076;-69
2022/10/05 03:23:58;;;;;;;25.83;13.32;;;;;;;7.68;100.00;97261.59;5020995;28;20104;-69
2022/10/05 03:26:56;;;;;;;56.28;15.18;;;;;;;7.50;100.00;97254.69;5015252;28;20030;-70
2022/10/05 03:29:57;;;;;;;25.33;14.70;;;;;;;7.55;100.00;97265.41;5016191;28;20045;-70
2022/10/05 03:32:40;;;;;;;61.33;16.08;;;;;;;7.55;100.00;97258.00;5010307;28;20045;-70
2022/10/05 03:35:22;;;;;;;72.75;15.35;;;;;;;7.49;100.00;97259.34;5009043;28;20391;-70
2022/10/05 03:37:57;;;;;;;67.70;15.10;;;;;;;7.41;100.00;97262.94;5010139;28;20399;-70
2022/10/05 03:40:37;;;;;;;28.80;14.60;;;;;;;7.41;100.00;97252.81;5019133;28;20041;-70
2022/10/05 03:43:14;;;;;;;;;;;;;;;7.44;100.00;97257.59;5030830;28;20491;-71
2022/10/05 03:45:57;;;;;;;72.28;16.10;;;;;;;7.47;100.00;97254.22;5024330;28;19917;-70
2022/10/05 03:48:31;;;;;;;98.30;19.70;;;;;;;7.49;100.00;97256.63;5033936;28;20020;-72
2022/10/05 03:50:59;;;;;;;40.63;17.92;;;;;;;7.50;100.00;97255.47;5051421;28;20036;-71
2022/10/05 03:53:30;;;;;;;37.17;18.05;;;;;;;7.60;100.00;97257.81;5036126;28;20037;-71
2022/10/05 03:56:05;;;;;;;41.47;18.45;;;;;;;7.81;100.00;97252.34;5026577;28;20033;-70
2022/10/05 03:58:38;;;;;;;100.75;21.25;;;;;;;7.86;100.00;97256.78;5031227;28;20033;-71
2022/10/05 04:01:10;;;;;;;33.78;18.75;;;;;;;7.83;100.00;97252.00;5031807;28;20029;-70
2022/10/05 04:03:52;;;;;;;54.33;20.08;;;;;;;7.91;100.00;97248.41;5013848;28;20147;-70
2022/10/05 04:06:33;;;;;;;32.45;18.20;;;;;;;8.03;100.00;97253.06;5033665;28;20037;-70
2022/10/05 04:09:12;;;;;;;38.85;19.95;;;;;;;8.14;100.00;97258.91;5013255;28;20705;-70
2022/10/05 04:11:45;;;;;;;79.25;21.58;;;;;;;8.12;100.00;97263.91;5030317;28;20568;-70
2022/10/05 04:14:23;;;;;;;39.58;18.52;;;;;;;8.11;100.00;97265.84;5029078;28;20041;-70
2022/10/05 04:16:57;;;;;;;39.33;19.15;;;;;;;8.26;100.00;97269.06;5035755;28;20037;-71
2022/10/05 04:19:32;;;;;;;60.55;19.73;;;;;;;8.34;100.00;97262.72;5053342;28;20033;-71
2022/10/05 04:22:14;;;;;;;52.22;18.35;;;;;;;8.36;100.00;97255.78;5034455;28;20514;-72
2022/10/05 04:24:46;;;;;;;172.48;20.38;;;;;;;8.29;100.00;97250.09;5024964;28;20034;-73
2022/10/05 04:27:17;;;;;;;40.95;17.95;;;;;;;8.22;100.00;97256.09;5014895;28;20398;-70
2022/10/05 04:30:01;;;;;;;52.92;20.10;;;;;;;8.30;100.00;97257.16;5041456;28;20036;-70
2022/10/05 04:32:41;;;;;;;33.03;17.08;;;;;;;8.37;100.00;97253.84;5030578;28;20442;-71
2022/10/05 04:35:31;;;;;;;31.17;17.92;;;;;;;8.41;100.00;97261.03;5029240;28;20026;-71
2022/10/05 04:37:57;;;;;;;38.28;18.98;;;;;;;8.50;100.00;97271.88;5026998;28;20087;-70
2022/10/05 04:40:44;;;;;;;31.27;17.92;;;;;;;8.58;100.00;97272.91;5031276;28;20029;-71
2022/10/05 04:43:26;;;;;;;34.25;18.35;;;;;;;8.64;100.00;97277.00;5031992;28;20056;-71
2022/10/05 04:46:07;;;;;;;30.17;17.67;;;;;;;8.71;100.00;97276.44;5023109;28;20029;-70
2022/10/05 04:49:05;;;;;;;41.45;17.95;;;;;;;8.70;100.00;97285.81;5032632;28;20037;-70
2022/10/05 04:51:56;;;;;;;32.47;17.20;;;;;;;8.68;100.00;97274.41;5032932;28;20095;-71
2022/10/05 04:54:36;;;;;;;29.08;16.88;;;;;;;8.70;100.00;97275.66;5028263;28;20048;-71
2022/10/05 04:57:06;;;;;;;32.28;16.75;;;;;;;8.74;100.00;97273.06;5031882;28;20037;-70
2022/10/05 04:59:50;;;;;;;29.73;16.23;;;;;;;8.76;100.00;97278.97;5029030;28;20105;-70
2022/10/05 05:02:33;;;;;;;32.15;15.60;;;;;;;8.78;100.00;97279.41;5013841;28;20040;-70
2022/10/05 05:05:08;;;;;;;23.65;15.00;;;;;;;8.78;100.00;97282.16;5029500;28;20057;-70
2022/10/05 05:07:52;;;;;;;27.27;15.48;;;;;;;8.82;100.00;97285.00;5031637;28;20043;-69
2022/10/05 05:10:18;;;;;;;23.80;14.50;;;;;;;8.84;100.00;97277.25;5029089;28;20141;-70
2022/10/05 05:13:12;;;;;;;30.50;14.80;;;;;;;8.83;100.00;97281.94;5031003;28;20029;-69
2022/10/05 05:16:16;;;;;;;22.52;14.73;;;;;;;8.81;100.00;97284.22;5028315;28;20049;-70
2022/10/05 05:19:07;;;;;;;31.20;15.52;;;;;;;8.78;100.00;97276.69;5029570;28;20042;-70
2022/10/05 05:21:52;;;;;;;46.40;16.20;;;;;;;8.76;100.00;97279.75;5030541;28;20033;-69
2022/10/05 05:24:20;;;;;;;40.90;15.93;;;;;;;8.74;100.00;97282.03;5029420;28;20029;-70
2022/10/05 05:27:23;;;;;;;86.03;16.83;;;;;;;8.64;100.00;97278.94;5031377;28;20474;-69
2022/10/05 05:30:15;;;;;;;33.05;14.70;;;;;;;8.67;100.00;97291.94;5032010;28;20120;-69
2022/10/05 05:33:07;;;;;;;28.70;14.70;;;;;;;8.70;100.00;97291.25;5026987;28;21268;-70
2022/10/05 05:35:44;;;;;;;27.27;14.75;;;;;;;8.70;100.00;97291.25;5024545;28;20471;-70
2022/10/05 05:38:35;;;;;;;43.53;15.25;;;;;;;8.70;100.00;97292.06;5032443;28;20033;-70
2022/10/05 05:41:35;;;;;;;174.35;18.08;;;;;;;8.59;100.00;97288.19;5029692;28;20033;-70
2022/10/05 05:44:18;;;;;;;31.35;17.35;;;;;;;8.68;100.00;97288.06;5025259;28;20021;-71
2022/10/05 05:46:48;;;;;;;70.80;15.85;;;;;;;8.60;100.00;97295.22;5024016;28;20029;-71
2022/10/05 05:49:24;;;;;;;145.45;17.45;;;;;;;8.48;100.00;97296.00;5026816;28;20050;-68
2022/10/05 05:51:57;;;;;;;108.95;17.58;;;;;;;8.49;100.00;97289.41;5032554;28;20065;-71
2022/10/05 05:54:35;;;;;;;115.95;18.80;;;;;;;8.39;100.00;97300.69;5034409;28;20139;-69
2022/10/05 05:57:18;;;;;;;35.88;15.68;;;;;;;8.58;100.00;97306.47;5032238;28;20029;-70
2022/10/05 05:59:55;;;;;;;26.50;15.85;;;;;;;8.57;100.00;97296.69;5033422;28;20029;-70
2022/10/05 06:02:30;;;;;;;29.50;17.77;;;;;;;8.68;100.00;97302.53;5030347;28;20493;-70
2022/10/05 06:05:01;;;;;;;41.10;17.45;;;;;;;8.85;100.00;97312.44;5031723;28;20029;-69
2022/10/05 06:07:30;;;;;;;33.58;16.27;;;;;;;8.95;100.00;97301.06;5026336;28;20034;-70
2022/10/05 06:10:21;;;;;;;34.97;17.73;;;;;;;9.03;100.00;97299.34;5031796;28;20032;-70
2022/10/05 06:12:51;;;;;;;38.83;15.98;;;;;;;9.11;100.00;97300.38;5044754;28;20104;-70
2022/10/05 06:15:37;;;;;;;28.00;16.77;;;;;;;9.19;100.00;97300.25;5013568;28;20025;-70
2022/10/05 06:18:10;;;;;;;48.33;17.05;;;;;;;9.19;100.00;97302.97;5025461;28;20056;-71
2022/10/05 06:20:56;;;;;;;46.05;16.38;;;;;;;9.29;100.00;97299.00;5030650;28;20033;-71
2022/10/05 06:23:55;;;;;;;33.75;16.10;;;;;;;9.38;100.00;97307.06;5029400;28;21324;-70
2022/10/05 06:26:33;;;;;;;38.33;17.02;;;;;;;9.49;100.00;97310.13;5018802;28;20029;-71
2022/10/05 06:29:10;;;;;;;39.92;16.20;;;;;;;9.50;100.00;97312.50;5029761;28;20040;-71
2022/10/05 06:32:01;;;;;;;32.13;15.88;;;;;;;9.50;100.00;97312.50;5031267;28;20052;-71
2022/10/05 06:34:40;;;;;;;34.00;15.90;;;;;;;9.54;100.00;97318.09;5020433;28;20034;-70
2022/10/05 06:37:19;;;;;;;27.45;15.45;;;;;;;9.57;100.00;97311.94;5022817;28;20548;-71
2022/10/05 06:40:03;;;;;;;47.63;17.25;;;;;;;9.61;100.00;97312.03;5047939;28;20055;-70
2022/10/05 06:42:29;;;;;;;22.95;13.68;;;;;;;9.64;100.00;97309.41;5042399;28;20026;-70
2022/10/05 06:45:03;;;;;;;28.27;15.63;;;;;;;9.71;100.00;97320.56;5032466;28;20352;-70
2022/10/05 06:47:38;;;;;;;32.15;15.10;;;;;;;9.75;100.00;97321.47;5030693;28;20037;-70
2022/10/05 06:50:41;;;;;;;27.00;15.02;;;;;;;9.84;100.00;97320.53;5031439;28;20040;-71
2022/10/05 06:53:28;;;;;;;34.08;15.65;;;;;;;9.94;100.00;97323.59;5032257;28;21835;-71
2022/10/05 06:56:03;;;;;;;22.92;14.15;;;;;;;9.99;100.00;97319.00;5033288;28;20076;-71
2022/10/05 06:58:34;;;;;;;66.90;13.77;;;;;;;9.96;100.00;97328.72;5035147;28;20044;-71
2022/10/05 07:01:11;;;;;;;25.10;14.40;;;;;;;10.00;100.00;97328.81;5015424;28;20056;-71
2022/10/05 07:03:37;;;;;;;23.05;15.63;;;;;;;10.02;100.00;97332.00;5035142;28;20029;-70
2022/10/05 07:06:14;;;;;;;46.05;15.05;;;;;;;10.05;100.00;97329.38;5027975;28;20087;-72
2022/10/05 07:09:06;;;;;;;25.58;14.45;;;;;;;10.06;100.00;97338.38;5029871;28;20029;-72
2022/10/05 07:11:54;;;;;;;25.90;15.00;;;;;;;10.16;100.00;97339.84;5035074;28;20085;-72
2022/10/05 07:14:49;;;;;;;29.00;14.77;;;;;;;10.23;100.00;97345.50;5030379;28;20030;-72
2022/10/05 07:17:35;;;;;;;22.20;14.02;;;;;;;10.28;100.00;97345.22;5006283;28;20072;-72
2022/10/05 07:20:16;;;;;;;72.18;14.45;;;;;;;10.24;100.00;97339.66;5012987;28;20029;-71
2022/10/05 07:22:50;;;;;;;25.45;15.05;;;;;;;10.24;100.00;97344.34;5032346;28;20029;-72
2022/10/05 07:25:26;;;;;;;24.08;14.35;;;;;;;10.34;100.00;97352.09;5019993;28;20032;-71
2022/10/05 07:28:12;;;;;;;27.08;15.55;;;;;;;10.43;100.00;97357.44;5028354;28;20057;-70
2022/10/05 07:31:25;;;;;;;32.05;14.80;;;;;;;10.43;100.00;97350.00;5040726;28;20033;-71
2022/10/05 07:33:53;;;;;;;47.65;14.10;;;;;;;10.39;100.00;97351.03;5016517;28;20060;-71
2022/10/05 07:39:56;;;;;;;22.15;13.10;;;;;;;10.27;100.00;97371.81;5017577;28;20049;-70
2022/10/05 07:43:01;;;;;;;25.60;13.05;;;;;;;10.45;100.00;97374.31;5034902;28;20087;-70
2022/10/05 07:45:44;;;;;;;20.90;12.32;;;;;;;10.51;100.00;97378.38;5029636;28;20037;-72
2022/10/05 07:48:55;;;;;;;18.67;12.57;;;;;;;10.53;100.00;97373.34;5014531;28;20037;-71
2022/10/05 07:51:23;;;;;;;18.05;12.05;;;;;;;10.43;100.00;97368.38;5023282;28;20030;-71
2022/10/05 07:53:59;;;;;;;19.23;11.30;;;;;;;10.49;100.00;97375.19;5017989;28;20108;-72
2022/10/05 07:56:34;;;;;;;15.45;11.05;;;;;;;10.56;100.00;97371.84;5026515;28;20034;-72
2022/10/05 07:59:06;;;;;;;19.95;13.00;;;;;;;10.68;100.00;97377.28;5046756;28;20029;-71
2022/10/05 08:01:40;;;;;;;18.63;12.85;;;;;;;10.92;100.00;97370.84;5047744;28;20029;-71
2022/10/05 08:04:24;;;;;;;41.67;16.42;;;;;;;10.81;100.00;97375.25;5019841;28;20386;-70
2022/10/05 08:06:55;;;;;;;33.60;13.38;;;;;;;10.37;100.00;97375.25;5014318;28;20402;-69
2022/10/05 08:09:44;;;;;;;20.00;11.98;;;;;;;10.62;100.00;97378.66;5015197;28;20045;-69
2022/10/05 08:12:13;;;;;;;17.75;12.20;;;;;;;10.85;100.00;97373.41;5006231;28;20037;-70
2022/10/05 08:15:12;;;;;;;22.77;12.15;;;;;;;11.21;100.00;97375.09;5024693;28;20049;-70
2022/10/05 08:17:50;;;;;;;19.45;11.93;;;;;;;11.45;100.00;97381.53;5010618;28;20056;-71
2022/10/05 08:20:21;;;;;;;16.73;11.13;;;;;;;11.47;100.00;97382.00;5016630;28;20059;-70
2022/10/05 08:22:56;;;;;;;19.85;11.70;;;;;;;11.43;100.00;97381.91;5021207;28;20380;-70
2022/10/05 08:25:36;;;;;;;14.50;9.85;;;;;;;11.69;100.00;97379.75;5017454;28;20067;-70
2022/10/05 08:28:10;;;;;;;23.98;11.02;;;;;;;10.75;100.00;97372.00;5023954;28;20049;-71
2022/10/05 08:30:51;;;;;;;25.45;13.52;;;;;;;10.30;100.00;97375.81;5027461;28;20053;-71
2022/10/05 08:33:19;;;;;;;19.42;11.88;;;;;;;10.55;100.00;97378.47;5014177;28;20588;-71
2022/10/05 08:35:54;;;;;;;20.02;12.55;;;;;;;11.06;100.00;97373.94;5025986;28;20064;-71
2022/10/05 08:38:29;;;;;;;20.55;12.40;;;;;;;11.49;100.00;97379.69;5017201;28;20101;-71
2022/10/05 08:41:15;;;;;;;23.35;11.05;;;;;;;11.78;100.00;97375.66;5006130;28;20033;-71
2022/10/05 08:44:01;;;;;;;14.40;10.10;;;;;;;12.04;100.00;97382.50;5023283;28;20042;-71
2022/10/05 08:46:54;;;;;;;17.33;10.90;;;;;;;12.16;100.00;97387.09;5026243;28;20041;-71
2022/10/05 08:49:42;;;;;;;21.10;12.02;;;;;;;12.00;100.00;97390.66;5036460;28;20501;-70
2022/10/05 08:52:19;;;;;;;16.30;11.60;;;;;;;12.09;100.00;97395.97;5017681;28;20775;-71
2022/10/05 08:55:12;;;;;;;15.50;10.77;;;;;;;12.43;100.00;97391.56;5023040;28;20048;-70
2022/10/05 08:57:55;;;;;;;17.48;11.65;;;;;;;12.55;100.00;97393.38;4998495;28;20045;-69
2022/10/05 09:00:44;;;;;;;19.23;11.10;;;;;;;11.95;100.00;97398.38;5016673;28;20042;-71
2022/10/05 09:03:25;;;;;;;14.43;10.73;;;;;;;12.17;100.00;97392.22;5008050;28;20034;-72
2022/10/05 09:06:15;;;;;;;15.85;11.13;;;;;;;12.13;100.00;97396.81;5019166;28;20037;-71
2022/10/05 09:09:13;;;;;;;17.70;11.52;;;;;;;12.19;100.00;97394.59;5024364;28;20045;-71
2022/10/05 09:11:44;;;;;;;21.95;13.35;;;;;;;11.09;100.00;97386.97;4982226;28;20070;-71
2022/10/05 09:14:27;;;;;;;31.65;17.58;;;;;;;11.64;100.00;97397.28;5007146;28;20042;-73
2022/10/05 09:17:01;;;;;;;21.33;14.48;;;;;;;11.35;100.00;97390.31;5025980;28;20064;-72
2022/10/05 09:19:51;;;;;;;17.27;12.90;;;;;;;11.48;100.00;97398.06;5008022;28;20049;-72
2022/10/05 09:22:39;;;;;;;21.42;13.60;;;;;;;11.72;100.00;97384.50;4996601;28;20034;-71
2022/10/05 09:25:07;;;;;;;19.20;12.55;;;;;;;12.31;100.00;97380.72;4993941;28;20045;-70
2022/10/05 09:27:37;;;;;;;16.70;11.20;;;;;;;12.77;100.00;97383.59;5003802;28;20511;-72
2022/10/05 09:30:17;;;;;;;18.73;12.55;;;;;;;12.88;100.00;97386.53;4993297;28;20037;-70
2022/10/05 09:32:56;;;;;;;22.02;13.85;;;;;;;11.98;100.00;97382.00;5003507;28;20045;-72
2022/10/05 09:35:46;;;;;;;17.25;12.43;;;;;;;12.71;100.00;97376.81;4997768;28;20433;-70
2022/10/05 09:38:30;;;;;;;15.57;11.60;;;;;;;12.87;100.00;97379.44;4999137;28;20038;-71
2022/10/05 09:41:27;;;;;;;17.85;13.20;;;;;;;11.90;100.00;97384.91;4998767;28;20060;-72
2022/10/05 09:44:30;;;;;;;19.40;13.05;;;;;;;12.08;100.00;97379.84;5009241;28;20045;-71
2022/10/05 09:47:31;;;;;;;16.08;11.82;;;;;;;12.80;100.00;97371.06;5022036;28;20556;-70
2022/10/05 09:49:59;;;;;;;18.73;12.80;;;;;;;12.66;100.00;97384.53;5011526;28;20049;-71
2022/10/05 09:52:50;;;;;;;18.88;11.73;;;;;;;13.04;100.00;97369.13;4997435;28;20426;-71
2022/10/05 09:55:38;;;;;;;18.55;11.82;;;;;;;13.70;100.00;97369.81;5017038;28;20498;-71
2022/10/05 09:58:38;;;;;;;15.55;9.77;;;;;;;14.76;100.00;97360.53;5010454;28;20151;-71
2022/10/05 10:01:07;;;;;;;14.70;10.10;;;;;;;15.69;100.00;97366.06;4992089;28;20041;-71
2022/10/05 10:04:00;;;;;;;14.85;9.05;;;;;;;16.05;100.00;97358.81;5019523;28;20133;-72
2022/10/05 10:06:47;;;;;;;12.23;10.15;;;;;;;15.73;100.00;97358.59;5014099;28;20037;-72
2022/10/05 10:09:27;;;;;;;15.10;9.73;;;;;;;15.86;100.00;97361.84;5010819;28;20060;-72
2022/10/05 10:12:20;;;;;;;12.05;9.77;;;;;;;16.13;100.00;97359.63;5021975;28;20075;-72
2022/10/05 10:15:09;;;;;;;12.07;8.95;;;;;;;17.33;100.00;97359.59;5006925;28;20042;-73
2022/10/05 10:17:56;;;;;;;11.88;8.93;;;;;;;18.08;95.59;97358.72;5003479;28;20046;-72
2022/10/05 10:21:06;;;;;;;12.55;8.75;;;;;;;18.03;94.81;97359.13;5013530;28;20071;-71
2022/10/05 10:23:58;;;;;;;10.25;7.88;;;;;;;18.46;95.12;97360.97;5002547;28;20112;-72
2022/10/05 10:26:55;;;;;;;9.73;7.65;;;;;;;19.27;90.83;97364.50;5011835;28;20063;-72
2022/10/05 10:29:39;;;;;;;11.20;6.55;;;;;;;19.17;84.08;97359.78;5009167;28;20048;-73
2022/10/05 10:32:30;;;;;;;8.55;7.32;;;;;;;19.16;86.75;97360.19;5008400;28;20107;-71
2022/10/05 10:35:04;;;;;;;8.52;6.60;;;;;;;19.11;86.65;97355.88;5000498;28;20038;-71
2022/10/05 10:37:38;;;;;;;9.38;6.47;;;;;;;19.86;82.52;97349.72;5014549;28;20045;-71
2022/10/05 10:40:29;;;;;;;7.45;6.10;;;;;;;18.50;96.22;97348.66;5017830;28;20048;-71
2022/10/05 10:42:55;;;;;;;8.98;5.85;;;;;;;19.26;92.04;97343.47;5021822;28;20135;-72
2022/10/05 10:45:32;;;;;;;6.70;5.40;;;;;;;20.02;84.53;97337.22;5015098;28;20050;-71
2022/10/05 10:48:38;;;;;;;7.97;5.43;;;;;;;20.03;82.11;97349.94;5026930;28;20449;-71
2022/10/05 10:51:13;;;;;;;9.20;5.50;;;;;;;20.13;80.68;97346.25;4999882;28;20041;-69
2022/10/05 10:54:06;;;;;;;6.93;5.07;;;;;;;20.29;79.96;97333.75;5014028;28;20041;-71
2022/10/05 10:56:54;;;;;;;7.10;5.32;;;;;;;20.68;81.94;97338.84;5032773;28;20100;-74
2022/10/05 10:59:51;;;;;;;6.15;5.22;;;;;;;19.61;82.56;97340.81;5018926;28;20121;-70
2022/10/05 11:02:19;;;;;;;7.95;4.85;;;;;;;20.43;81.10;97325.22;5016987;28;20121;-73
2022/10/05 11:05:06;;;;;;;5.47;4.22;;;;;;;21.06;75.72;97335.13;5024812;28;20147;-72
2022/10/05 11:07:37;;;;;;;4.55;3.50;;;;;;;21.43;75.49;97325.78;5028545;28;20140;-73
2022/10/05 11:10:36;;;;;;;4.90;3.92;;;;;;;21.88;70.95;97327.44;5030990;28;20046;-70
2022/10/05 11:13:32;;;;;;;7.90;4.35;;;;;;;21.98;70.34;97320.06;5029927;28;20045;-72
2022/10/05 11:16:22;;;;;;;4.90;3.63;;;;;;;21.38;70.62;97320.69;5019663;28;20499;-72
2022/10/05 11:19:42;;;;;;;4.57;3.50;;;;;;;22.81;65.37;97316.38;5030644;28;20049;-72
2022/10/05 11:22:18;;;;;;;4.85;3.72;;;;;;;20.02;73.45;97301.09;5022516;28;20037;-72
2022/10/05 11:25:02;;;;;;;5.88;3.72;;;;;;;19.81;76.43;97305.69;5027572;28;20048;-73
2022/10/05 11:28:09;;;;;;;6.35;3.70;;;;;;;18.61;84.04;97301.44;5025970;28;20042;-73
2022/10/05 11:30:53;;;;;;;5.97;3.70;;;;;;;18.41;85.88;97303.16;5029736;28;20037;-75
2022/10/05 11:33:55;;;;;;;5.93;3.55;;;;;;;18.53;86.19;97294.38;5024803;28;20080;-73
2022/10/05 11:36:42;;;;;;;5.68;3.53;;;;;;;19.25;82.23;97302.25;5022563;28;20037;-70
2022/10/05 11:39:32;;;;;;;4.25;3.17;;;;;;;19.70;82.28;97293.88;5038237;28;20041;-71
2022/10/05 11:42:06;;;;;;;5.45;2.97;;;;;;;22.23;63.40;97295.25;5029436;28;20087;-71
2022/10/05 11:44:37;;;;;;;5.38;2.80;;;;;;;23.26;55.95;97297.00;5022251;28;20045;-70
2022/10/05 11:47:30;;;;;;;8.80;4.38;;;;;;;23.20;55.81;97295.94;5024930;28;20049;-70
2022/10/05 11:50:10;;;;;;;3.85;2.28;;;;;;;23.14;54.42;97291.28;5027313;28;20045;-73
2022/10/05 11:52:50;;;;;;;7.82;2.55;;;;;;;24.15;53.13;97283.91;5006498;28;20487;-72
2022/10/05 11:55:37;;;;;;;4.45;2.70;;;;;;;23.88;52.23;97285.03;5024456;28;20037;-69
2022/10/05 11:58:14;;;;;;;9.30;1.92;;;;;;;24.42;51.35;97280.72;5029168;28;20049;-73
2022/10/05 12:00:48;;;;;;;6.00;2.47;;;;;;;24.69;51.22;97271.91;5030335;28;20033;-71
2022/10/05 12:03:32;;;;;;;4.50;2.40;;;;;;;25.10;49.67;97266.63;5018420;28;20116;-70
2022/10/05 12:06:13;;;;;;;4.70;2.63;;;;;;;23.88;54.25;97264.66;5011792;28;20038;-69
2022/10/05 12:08:56;;;;;;;3.53;2.60;;;;;;;23.77;52.10;97267.72;5012429;28;20136;-70
2022/10/05 12:11:34;;;;;;;5.55;2.10;;;;;;;22.45;52.75;97264.91;5019713;28;20466;-71
2022/10/05 12:14:36;;;;;;;5.65;2.20;;;;;;;22.57;54.31;97265.47;5023350;28;20041;-70
2022/10/05 12:17:05;;;;;;;5.05;2.67;;;;;;;22.16;54.12;97273.06;5037051;28;20053;-70
2022/10/05 12:19:35;;;;;;;10.93;2.53;;;;;;;22.28;54.39;97264.06;5023699;28;20088;-71
2022/10/05 12:22:21;;;;;;;6.47;2.85;;;;;;;21.23;57.11;97255.28;5018109;28;20045;-71
2022/10/05 12:25:00;;;;;;;5.90;3.30;;;;;;;21.79;58.20;97255.50;5023170;28;20037;-71
2022/10/05 12:27:39;;;;;;;9.63;4.25;;;;;;;21.68;61.84;97247.34;5017198;28;20045;-70
2022/10/05 12:30:13;;;;;;;5.35;3.10;;;;;;;20.79;62.77;97247.63;5012319;28;20060;-72